This is the latest recevied weather packets stored in our database for station/object K1BES. If no packets are shown the sender has not sent any weather packets the latest 10 day(s).
| Time | Temp. | Humidity | Pressure | Rain* | Wind** | Luminosity | Snow |
|---|---|---|---|---|---|---|---|
| 1787760033 | 33.89° C | 61% | 1019.9 hPa | 0 mm | - | 414 W/m² | - |
| 1787759726 | 33.89° C | 60% | 1019.8 hPa | 0 mm | - | 589 W/m² | - |
| 1787759422 | 34.44° C | 57% | 1019.5 hPa | 0 mm | - | 485 W/m² | - |
| 1787759117 | 35.56° C | 56% | 1019.8 hPa | 0 mm | - | 424 W/m² | - |
| 1787758816 | 35° C | 58% | 1019.9 hPa | 0 mm | - | 1053 W/m² | - |
| 1787758512 | 35° C | 58% | 1019.9 hPa | 0 mm | - | 1012 W/m² | - |
| 1787758211 | 35° C | 59% | 1019.6 hPa | 0 mm | - | 860 W/m² | - |
| 1787757906 | 35° C | 58% | 1020 hPa | 0 mm | - | 828 W/m² | - |
| 1787757603 | 34.44° C | 62% | 1019.7 hPa | 0 mm | - | 842 W/m² | - |
| 1787757301 | 33.89° C | 63% | 1019.7 hPa | 0 mm | - | 837 W/m² | - |
| 1787757001 | 34.44° C | 63% | 1019.6 hPa | 0 mm | - | 837 W/m² | - |
| 1787756696 | 34.44° C | 64% | 1019.7 hPa | 0 mm | - | 814 W/m² | - |
| 1787756395 | 33.89° C | 66% | 1019.9 hPa | 0 mm | - | 713 W/m² | - |
| 1787756090 | 33.33° C | 68% | 1019.7 hPa | 0 mm | - | 768 W/m² | - |
| 1787755784 | 33.33° C | 67% | 1019.8 hPa | 0 mm | - | 736 W/m² | - |
| 1787755479 | 32.22° C | 70% | 1019.7 hPa | 0 mm | - | 750 W/m² | - |
| 1787755179 | 31.11° C | 72% | 1019.6 hPa | 0 mm | - | 727 W/m² | - |
| 1787754872 | 30.56° C | 74% | 1019.6 hPa | 0 mm | - | 194 W/m² | - |
| 1787754572 | 31.11° C | 73% | 1019.7 hPa | 0 mm | - | 147 W/m² | - |
| 1787754270 | 31.11° C | 73% | 1019.6 hPa | 0 mm | - | 148 W/m² | - |
| 1787753966 | 31.11° C | 72% | 1019.8 hPa | 0 mm | - | 191 W/m² | - |
| 1787753665 | 31.67° C | 72% | 1019.7 hPa | 0 mm | - | 167 W/m² | - |
| 1787753364 | 32.22° C | 69% | 1019.8 hPa | 0 mm | - | 529 W/m² | - |
| 1787753059 | 32.78° C | 69% | 1019.6 hPa | 0 mm | - | 629 W/m² | - |
| 1787752758 | 33.33° C | 69% | 1019.7 hPa | 0 mm | - | 582 W/m² | - |
* Rain latest hour (hover to see other rain measurements)
** Current wind speed in m/s (hover to see current wind gust speed)